Latest Weather Observations for Derby

IDW60801

Issued at 3:05 pm WST Saturday 26 July 2014 (issued every 30 minutes, with the page automatically refreshed every 10 minutes)

About weather observations | Map of weather stations | Latest weather observations for WA | Other Formats
Station Details ID: 003032 Name: DERBY AERO Lat: -17.37 Lon: 123.66 Height: 6.2 m
Data from the previous 72 hours. | See also: Recent months at Derby
Date/Time
WST
Temp
°C
App
Temp
°C
Dew
Point
Rel
Hum
%
Delta-T
°C
Wind Press
QNH
hPa
Press
MSL
hPa
Rain
since 9 am
mm
Dir
 
Spd
km/h
Gust
km/h
Spd
kts
Gust
kts
26/03:00pm 29.6 24.7 8.6 27 11.6 WNW 24 30 13 16 1015.8 1015.8 0.0
26/02:30pm 30.6 25.7 10.0 28 11.7 NW 26 30 14 16 1015.9 - 0.0
26/02:00pm 30.9 25.9 9.7 27 12.0 NW 26 33 14 18 1015.9 1015.9 0.0
26/01:30pm 31.9 28.3 10.0 26 12.5 NW 19 26 10 14 1016.2 - 0.0
26/01:00pm 31.8 29.0 8.7 24 12.9 NNE 13 24 7 13 1016.5 1016.5 0.0
26/12:30pm 30.9 28.4 8.0 24 12.6 N 11 20 6 11 1016.9 - 0.0
26/12:00pm 30.7 27.5 8.4 25 12.3 NNE 15 22 8 12 1017.4 1017.4 0.0
26/11:30am 29.5 25.5 6.8 24 12.1 NE 17 24 9 13 1017.9 - 0.0
26/11:00am 29.6 26.6 7.5 25 11.9 NE 13 19 7 10 1018.3 1018.3 0.0
26/10:30am 28.5 25.1 7.7 27 11.2 E 15 20 8 11 1018.8 - 0.0
26/10:00am 27.0 22.7 6.9 28 10.6 ESE 19 24 10 13 1019.2 1019.2 0.0
26/09:30am 25.7 20.9 5.8 28 10.2 ESE 20 28 11 15 1019.3 - 0.0
26/09:00am 24.8 21.1 6.1 30 9.6 SE 15 20 8 11 1019.4 1019.4 0.0
26/08:30am 22.2 19.0 6.8 37 7.9 SSE 13 19 7 10 1019.4 - 0.0
26/08:00am 20.5 17.1 5.7 38 7.3 S 13 19 7 10 1019.1 1019.1 0.0
26/07:30am 18.9 16.0 6.4 44 6.2 S 11 13 6 7 1018.9 - 0.0
26/07:00am 15.7 12.9 7.0 56 4.3 S 11 13 6 7 1018.4 1018.4 0.0
26/06:30am 14.1 10.9 6.7 61 3.6 S 13 15 7 8 1018.0 - 0.0
26/06:00am 14.6 11.7 6.4 58 3.9 S 11 15 6 8 1017.7 1017.7 0.0
26/05:30am 14.2 10.6 6.8 61 3.6 S 15 17 8 9 1017.4 - 0.0
26/05:00am 14.0 10.0 6.8 62 3.5 S 17 19 9 10 1017.3 1017.3 0.0
26/04:30am 14.0 10.9 7.3 64 3.3 S 13 17 7 9 1017.4 - 0.0
26/04:00am 14.1 11.8 7.4 64 3.3 S 9 15 5 8 1017.4 1017.4 0.0
26/03:30am 14.1 12.2 7.4 64 3.3 S 7 11 4 6 1017.4 - 0.0
26/03:00am 14.1 11.6 8.1 67 3.0 S 11 13 6 7 1017.3 1017.3 0.0
26/02:30am 13.9 12.4 8.3 69 2.8 SSW 6 9 3 5 1017.4 - 0.0
26/02:00am 14.6 12.8 8.1 65 3.2 S 7 9 4 5 1017.2 1017.2 0.0
26/01:30am 14.7 12.6 8.2 65 3.3 S 9 11 5 6 1017.1 - 0.0
26/01:00am 15.0 13.4 8.0 63 3.5 SSW 6 7 3 4 1017.4 1017.4 0.0
26/12:30am 15.6 13.1 8.1 61 3.8 S 11 13 6 7 1017.4 - 0.0
26/12:00am 15.7 13.2 8.4 62 3.7 S 11 11 6 6 1017.5 1017.5 0.0
 
Date/Time
WST
Temp
°C
App
Temp
°C
Dew
Point
Rel
Hum
%
Delta-T
°C
Wind Press
QNH
hPa
Press
MSL
hPa
Rain
since 9 am
mm
Dir
 
Spd
km/h
Gust
km/h
Spd
kts
Gust
kts
25/11:30pm 16.7 14.2 8.1 57 4.4 S 11 13 6 7 1017.5 - 0.0
25/11:00pm 17.0 15.3 8.4 57 4.4 S 7 9 4 5 1017.8 1017.8 0.0
25/10:30pm 17.3 15.2 8.2 55 4.6 S 9 9 5 5 1017.7 - 0.0
25/10:00pm 18.8 16.0 6.9 46 6.0 SSE 11 13 6 7 1017.7 1017.7 0.0
25/09:30pm 18.9 16.5 7.0 46 6.0 SSE 9 11 5 6 1017.9 - 0.0
25/09:00pm 20.0 16.9 7.4 44 6.4 SSE 13 15 7 8 1017.8 1017.8 0.0
25/08:30pm 20.1 17.3 8.4 47 6.1 SSE 13 15 7 8 1017.6 - 0.0
25/08:00pm 20.5 17.6 8.2 45 6.4 S 13 15 7 8 1017.4 1017.4 0.0
25/07:30pm 21.4 18.7 7.3 40 7.3 S 11 13 6 7 1017.2 - 0.0
25/07:00pm 21.7 18.8 8.2 42 7.1 S 13 15 7 8 1016.8 1016.8 0.0
25/06:30pm 22.9 20.1 8.6 40 7.6 S 13 17 7 9 1016.6 - 0.0
25/06:00pm 25.3 21.9 6.0 29 9.9 SE 13 19 7 10 1016.3 1016.3 0.0
25/05:30pm 26.4 22.6 5.9 27 10.6 SE 15 17 8 9 1016.0 - 0.0
25/05:00pm 28.0 24.5 5.6 24 11.6 SSE 13 19 7 10 1015.7 1015.7 0.0
25/04:30pm 29.0 25.6 5.8 23 12.2 SSE 13 19 7 10 1015.5 - 0.0
25/04:00pm 29.2 25.3 5.3 22 12.4 SSE 15 20 8 11 1015.4 1015.4 0.0
25/03:30pm 29.5 25.7 5.6 22 12.5 SSE 15 20 8 11 1015.2 - 0.0
25/03:00pm 29.5 25.9 4.9 21 12.7 SSE 13 19 7 10 1015.3 1015.3 0.0
25/02:30pm 29.1 24.8 5.2 22 12.4 SE 17 24 9 13 1015.4 - 0.0
25/02:00pm 29.5 25.5 4.9 21 12.7 SE 15 24 8 13 1015.6 1015.6 0.0
25/01:30pm 29.4 25.2 5.5 22 12.5 SSE 17 26 9 14 1016.0 - 0.0
25/01:00pm 29.6 25.0 5.6 22 12.6 SSE 19 30 10 16 1016.2 1016.2 0.0
25/12:30pm 28.7 23.8 4.2 21 12.5 SE 19 26 10 14 1016.6 - 0.0
25/12:00pm 28.9 23.6 5.1 22 12.3 SE 22 30 12 16 1017.0 1017.0 0.0
25/11:30am 27.8 22.6 3.5 21 12.1 ESE 20 28 11 15 1017.5 - 0.0
25/11:00am 27.5 21.9 3.2 21 12.0 ESE 22 28 12 15 1017.9 1017.9 0.0
25/10:30am 26.8 21.6 3.3 22 11.6 ESE 20 28 11 15 1018.2 - 0.0
25/10:00am 25.4 18.4 2.2 22 11.1 ESE 28 37 15 20 1018.4 1018.4 0.0
25/09:30am 24.8 18.0 2.9 24 10.6 ESE 28 35 15 19 1018.5 - 0.0
25/09:00am 23.3 15.6 2.2 25 10.0 ESE 32 41 17 22 1018.7 1018.7 0.0
25/08:30am 22.7 16.5 2.2 26 9.7 SE 24 35 13 19 1018.8 - 0.0
25/08:00am 20.2 15.5 3.4 33 7.9 SSE 17 20 9 11 1018.4 1018.4 0.0
25/07:30am 17.3 13.3 4.9 44 5.9 SSE 15 19 8 10 1018.1 - 0.0
25/07:00am 15.5 11.9 5.1 50 4.9 SSE 13 17 7 9 1017.8 1017.8 0.0
25/06:30am 13.8 10.4 5.7 58 3.8 SSE 13 15 7 8 1017.5 - 0.0
25/06:00am 12.7 9.5 6.7 67 2.9 S 13 15 7 8 1017.5 1017.5 0.0
25/05:30am 13.5 11.4 5.9 60 3.6 SSE 6 7 3 4 1017.1 - 0.0
25/05:00am 13.6 11.0 6.0 60 3.6 SSE 9 11 5 6 1016.7 1016.7 0.0
25/04:30am 14.3 10.9 5.9 57 4.0 SSE 13 17 7 9 1016.4 - 0.0
25/04:00am 15.2 11.8 5.7 53 4.5 SSE 13 15 7 8 1016.1 1016.1 0.0
25/03:30am 16.0 12.5 5.3 49 5.1 SE 13 17 7 9 1015.9 - 0.0
25/03:00am 15.8 12.4 6.0 52 4.7 SSE 13 15 7 8 1015.9 1015.9 0.0
25/02:30am 15.0 12.0 7.8 62 3.6 SSE 13 15 7 8 1015.7 - 0.0
25/02:00am 15.9 13.2 7.4 57 4.2 SSE 11 13 6 7 1015.8 1015.8 0.0
25/01:30am 17.0 14.1 6.5 50 5.2 SSE 11 13 6 7 1015.8 - 0.0
25/01:00am 17.2 14.3 6.7 50 5.2 SE 11 13 6 7 1015.9 1015.9 0.0
25/12:30am 16.6 16.0 9.1 61 3.9 SE 2 7 1 4 1016.0 - 0.0
25/12:00am 17.5 15.8 8.4 55 4.7 SSE 7 9 4 5 1016.3 1016.3 0.0
 
Date/Time
WST
Temp
°C
App
Temp
°C
Dew
Point
Rel
Hum
%
Delta-T
°C
Wind Press
QNH
hPa
Press
MSL
hPa
Rain
since 9 am
mm
Dir
 
Spd
km/h
Gust
km/h
Spd
kts
Gust
kts
24/11:30pm 18.0 15.1 8.3 53 5.0 SSE 13 15 7 8 1016.4 - 0.0
24/11:00pm 18.7 15.8 8.1 50 5.4 SSE 13 17 7 9 1016.4 1016.4 0.0
24/10:30pm 18.8 16.0 8.5 51 5.3 SSE 13 17 7 9 1016.5 - 0.0
24/10:00pm 18.9 16.2 8.8 52 5.3 S 13 15 7 8 1016.5 1016.5 0.0
24/09:30pm 19.7 17.2 8.1 47 6.0 SE 11 13 6 7 1016.4 - 0.0
24/09:00pm 20.2 17.7 8.2 46 6.2 SE 11 11 6 6 1016.3 1016.3 0.0
24/08:30pm 21.4 18.5 8.3 43 6.9 SSE 13 17 7 9 1016.2 - 0.0
24/08:00pm 21.1 18.4 9.0 46 6.4 SE 13 15 7 8 1015.8 1015.8 0.0
24/07:30pm 21.6 19.7 10.4 49 6.1 SSE 11 15 6 8 1015.6 - 0.0
24/07:00pm 22.5 20.1 10.0 45 6.8 S 13 17 7 9 1015.2 1015.2 0.0
24/06:30pm 23.1 20.8 10.5 45 6.9 S 13 17 7 9 1014.7 - 0.0
24/06:00pm 23.8 21.5 10.5 43 7.3 S 13 15 7 8 1014.2 1014.2 0.0
24/05:30pm 25.5 22.1 9.3 36 8.8 S 17 20 9 11 1014.0 - 0.0
24/05:00pm 26.9 22.8 8.8 32 9.9 SSW 20 24 11 13 1013.8 1013.8 0.0
24/04:30pm 27.7 23.3 9.0 31 10.3 S 22 32 12 17 1013.8 - 0.0
24/04:00pm 28.6 23.8 8.8 29 10.9 SSW 24 28 13 15 1013.7 1013.7 0.0
24/03:30pm 28.6 25.4 8.3 28 11.1 S 15 19 8 10 1013.5 - 0.0
24/03:00pm 28.5 25.6 8.2 28 11.1 SSE 13 20 7 11 1013.4 1013.4 0.0
24/02:30pm 28.5 25.7 8.7 29 10.9 SSE 13 22 7 12 1013.5 - 0.0
24/02:00pm 28.7 25.6 8.9 29 10.9 S 15 22 8 12 1013.5 1013.5 0.0
24/01:30pm 28.3 25.4 8.1 28 11.0 ESE 13 20 7 11 1013.9 - 0.0
24/01:00pm 28.1 24.4 7.9 28 10.9 SSE 17 20 9 11 1014.5 1014.5 0.0
24/12:30pm 27.8 24.1 8.1 29 10.7 SE 17 28 9 15 1015.0 - 0.0
24/12:00pm 27.7 24.8 8.1 29 10.6 SE 13 24 7 13 1015.6 1015.6 0.0
24/11:30am 26.6 22.4 7.6 30 10.1 SE 19 30 10 16 1016.0 - 0.0
24/11:00am 26.3 22.1 7.4 30 10.0 SSE 19 28 10 15 1016.5 1016.5 0.0
24/10:30am 25.9 22.6 8.0 32 9.6 SSE 15 22 8 12 1016.9 - 0.0
24/10:00am 25.4 20.3 7.5 32 9.4 SE 24 33 13 18 1017.3 1017.3 0.0
24/09:30am 24.5 19.3 7.2 33 9.1 ESE 24 33 13 18 1017.4 - 0.0
24/09:00am 23.6 19.5 7.7 36 8.3 SE 19 28 10 15 1017.5 1017.5 0.2
24/08:30am 22.5 18.9 8.2 40 7.5 SE 17 26 9 14 1017.6 - 0.2
24/08:00am 21.2 18.2 9.4 47 6.3 SSE 15 19 8 10 1017.3 1017.3 0.2
24/07:30am 19.7 17.1 9.3 51 5.5 S 13 17 7 9 1017.0 - 0.2
24/07:00am 19.0 17.2 9.5 54 5.0 SE 9 13 5 7 1016.6 1016.6 0.2
24/06:30am 17.2 15.9 9.9 62 3.8 SE 7 11 4 6 1016.0 - 0.2
24/06:00am 17.0 15.6 9.7 62 3.8 ESE 7 9 4 5 1015.5 1015.5 0.2
24/05:30am 18.4 16.3 9.7 57 4.6 SE 11 15 6 8 1015.1 - 0.2
24/05:00am 19.2 16.0 9.9 55 5.0 SSE 17 24 9 13 1014.6 1014.6 0.2
24/04:30am 19.0 15.4 10.6 58 4.5 S 20 26 11 14 1013.9 - 0.2
24/04:00am 18.1 15.3 11.4 65 3.6 S 17 19 9 10 1014.0 1014.0 0.2
24/03:30am 18.2 15.9 11.7 66 3.6 S 15 17 8 9 1014.0 - 0.2
24/03:00am 18.1 16.7 12.1 68 3.3 S 11 13 6 7 1014.1 1014.1 0.2
24/02:30am 18.9 16.8 12.4 66 3.6 S 15 19 8 10 1014.0 - 0.2
24/02:00am 19.5 17.4 12.3 63 4.0 S 15 17 8 9 1014.0 1014.0 0.2
24/01:30am 20.3 17.9 12.8 62 4.2 S 17 22 9 12 1014.1 - 0.2
24/01:00am 20.6 19.1 13.1 62 4.3 S 13 17 7 9 1014.0 1014.0 0.2
24/12:30am 21.1 19.7 13.3 61 4.5 S 13 17 7 9 1014.1 - 0.2
24/12:00am 22.7 20.5 13.2 55 5.5 S 17 20 9 11 1014.4 1014.4 0.2
 
Date/Time
WST
Temp
°C
App
Temp
°C
Dew
Point
Rel
Hum
%
Delta-T
°C
Wind Press
QNH
hPa
Press
MSL
hPa
Rain
since 9 am
mm
Dir
 
Spd
km/h
Gust
km/h
Spd
kts
Gust
kts
23/11:30pm 20.6 21.6 15.4 72 3.1 WSW 4 7 2 4 1014.3 - 0.2
23/11:00pm 21.3 21.4 15.4 69 3.5 SW 9 9 5 5 1014.4 1014.4 0.2
23/10:30pm 21.9 21.1 16.0 69 3.6 WSW 15 17 8 9 1014.4 - 0.2
23/10:00pm 22.7 21.7 16.5 68 3.8 W 17 19 9 10 1014.3 1014.3 0.2
23/09:30pm 22.8 22.5 16.4 67 3.9 W 13 17 7 9 1014.3 - 0.2
23/09:00pm 22.7 22.8 17.4 72 3.3 WNW 13 19 7 10 1014.3 1014.3 0.2
23/08:30pm 22.1 22.8 15.7 67 3.8 WNW 6 6 3 3 1014.0 - 0.2
23/08:00pm 22.6 24.2 15.9 66 4.0 SSW 2 6 1 3 1013.7 1013.7 0.2
23/07:30pm 24.3 25.7 15.5 58 5.3 SSW 2 6 1 3 1013.5 - 0.2
23/07:00pm 24.1 26.3 16.6 63 4.6 CALM 0 0 0 0 1013.2 1013.2 0.2
23/06:30pm 24.6 26.6 16.1 59 5.2 CALM 0 0 0 0 1012.9 - 0.2
23/06:00pm 25.9 27.6 16.2 55 6.0 W 2 7 1 4 1012.6 1012.6 0.2
23/05:30pm 26.9 26.8 15.9 51 6.7 W 11 13 6 7 1012.4 - 0.2
23/05:00pm 29.6 28.0 12.9 35 9.9 SW 13 19 7 10 1012.1 1012.1 0.2
23/04:30pm 30.1 28.4 12.5 34 10.4 S 13 19 7 10 1011.8 - 0.2
23/04:00pm 30.6 29.7 12.5 33 10.7 S 9 15 5 8 1011.8 1011.8 0.2
23/03:30pm 30.4 28.4 11.4 31 11.0 S 13 17 7 9 1011.8 - 0.2

Other Formats:

Comma delimited format used in spreadsheet applications
http://www.bom.gov.au/fwo/IDW60801/IDW60801.95205.axf

JavaScript Object Notation format (JSON) in row-major order
http://www.bom.gov.au/fwo/IDW60801/IDW60801.95205.json